Time;durP1;ratioP1;P1;durP2;ratioP2;P2;SDS_P1;SDS_P2;PMS_P1;PMS_P2;Temp;Humidity;BMP_temperature;BMP_pressure;BME280_temperature;BME280_humidity;BME280_pressure;Samples;Min_cycle;Max_cycle;Signal;HPM_P1;HPM_P2
2021/09/02 00:01:10;;;;;;;10.57;9.43;;;;;;;17.11;72.44;101273.34;5061009;28;20817;-75
2021/09/02 00:03:35;;;;;;;11.80;9.73;;;;;;;17.10;72.72;101273.59;5072757;28;20403;-75
2021/09/02 00:06:00;;;;;;;9.80;8.68;;;;;;;17.09;72.53;101264.56;5071769;28;20491;-75
2021/09/02 00:08:25;;;;;;;9.30;8.30;;;;;;;17.08;72.73;101268.41;5074075;28;20387;-75
2021/09/02 00:10:51;;;;;;;10.97;9.40;;;;;;;17.07;72.92;101264.00;5070387;28;20474;-75
2021/09/02 00:13:16;;;;;;;13.43;8.93;;;;;;;17.04;72.71;101267.28;5073858;28;20866;-75
2021/09/02 00:15:42;;;;;;;11.63;9.07;;;;;;;17.08;72.40;101264.84;5063317;28;20450;-75
2021/09/02 00:18:07;;;;;;;11.40;8.90;;;;;;;17.07;72.57;101258.53;5073824;28;20446;-75
2021/09/02 00:20:33;;;;;;;11.77;9.07;;;;;;;17.08;72.41;101262.09;5068275;28;20731;-75
2021/09/02 00:22:59;;;;;;;9.55;8.63;;;;;;;17.04;72.72;101259.06;5060120;28;20462;-75
2021/09/02 00:25:24;;;;;;;10.98;9.23;;;;;;;17.03;72.54;101251.13;5056337;28;20488;-75
2021/09/02 00:27:50;;;;;;;10.50;9.40;;;;;;;16.97;72.82;101255.75;5053081;28;20427;-75
2021/09/02 00:30:15;;;;;;;12.67;9.47;;;;;;;16.97;73.10;101254.94;5068186;28;20411;-75
2021/09/02 00:32:40;;;;;;;12.20;9.33;;;;;;;16.94;72.88;101248.09;5073608;28;20392;-75
2021/09/02 00:35:06;;;;;;;12.80;10.23;;;;;;;16.92;72.88;101250.28;5062600;28;20416;-75
2021/09/02 00:37:32;;;;;;;10.68;9.40;;;;;;;16.89;72.65;101252.72;5053232;28;20459;-75
2021/09/02 00:39:57;;;;;;;10.45;9.52;;;;;;;16.88;73.16;101254.63;5053369;28;20456;-75
2021/09/02 00:42:22;;;;;;;10.20;9.13;;;;;;;16.88;73.10;101251.88;5073196;28;20396;-75
2021/09/02 00:44:48;;;;;;;11.10;9.47;;;;;;;16.88;73.19;101245.59;5068866;28;20899;-75
2021/09/02 00:47:18;;;;;;;10.97;9.23;;;;;;;16.87;72.86;101242.03;5064202;28;20411;-75
2021/09/02 00:49:45;;;;;;;10.67;9.57;;;;;;;16.85;72.45;101240.66;5059934;28;20459;-75
2021/09/02 00:52:13;;;;;;;15.02;9.75;;;;;;;16.78;73.44;101242.81;5052883;28;20789;-75
2021/09/02 00:54:46;;;;;;;11.33;8.93;;;;;;;16.78;72.89;101242.81;5052626;28;20417;-75
2021/09/02 00:57:14;;;;;;;12.88;9.77;;;;;;;16.77;73.10;101238.41;5057877;28;20417;-75
2021/09/02 00:59:39;;;;;;;10.23;8.73;;;;;;;16.77;73.04;101241.16;5065722;28;20409;-75
2021/09/02 01:02:07;;;;;;;10.43;9.38;;;;;;;16.77;73.09;101249.34;5068825;28;20756;-75
2021/09/02 01:04:32;;;;;;;11.32;8.93;;;;;;;16.75;73.05;101243.34;5070346;28;20396;-75
2021/09/02 01:06:58;;;;;;;14.67;9.43;;;;;;;16.75;73.23;101246.91;5057223;28;20422;-75
2021/09/02 01:09:27;;;;;;;10.82;9.82;;;;;;;16.72;73.39;101244.69;5062159;28;20407;-75
2021/09/02 01:11:54;;;;;;;11.57;9.10;;;;;;;16.71;72.96;101234.84;5066463;28;20529;-75
2021/09/02 01:14:20;;;;;;;10.43;9.18;;;;;;;16.69;72.81;101244.41;5058433;28;20415;-75
2021/09/02 01:16:54;;;;;;;10.27;9.37;;;;;;;16.67;73.07;101243.84;5063122;28;20415;-75
2021/09/02 01:19:21;;;;;;;11.75;9.25;;;;;;;16.64;73.14;101237.00;5070670;28;20967;-75
2021/09/02 01:21:48;;;;;;;11.05;9.55;;;;;;;16.62;73.06;101238.34;5068812;28;20522;-75
2021/09/02 01:24:14;;;;;;;10.63;9.02;;;;;;;16.61;73.12;101232.03;5070721;28;21035;-75
2021/09/02 01:26:40;;;;;;;10.07;9.07;;;;;;;16.57;72.98;101231.75;5055970;28;20886;-75
2021/09/02 01:29:08;;;;;;;10.90;8.87;;;;;;;16.57;72.88;101229.00;5068644;28;20408;-75
2021/09/02 01:31:33;;;;;;;10.23;9.23;;;;;;;16.55;73.01;101231.22;5054040;28;20738;-75
2021/09/02 01:33:59;;;;;;;10.20;9.00;;;;;;;16.54;73.22;101228.69;5059028;28;20419;-75
2021/09/02 01:36:24;;;;;;;9.83;8.83;;;;;;;16.52;73.22;101228.97;5072098;28;20411;-75
2021/09/02 01:38:50;;;;;;;11.68;9.00;;;;;;;16.51;72.69;101226.50;5053609;28;20775;-75
2021/09/02 01:41:15;;;;;;;9.98;9.15;;;;;;;16.49;73.26;101220.47;5060882;28;20484;-75
2021/09/02 01:43:40;;;;;;;9.70;8.70;;;;;;;16.46;72.95;101224.56;5054637;28;20793;-75
2021/09/02 01:46:06;;;;;;;10.17;8.70;;;;;;;16.42;72.93;101220.72;5062960;28;20391;-75
2021/09/02 01:48:36;;;;;;;10.00;9.00;;;;;;;16.41;73.20;101221.78;5052742;28;20411;-75
2021/09/02 01:51:02;;;;;;;11.55;9.68;;;;;;;16.41;73.07;101218.22;5054219;28;20879;-74
2021/09/02 01:53:27;;;;;;;10.23;9.23;;;;;;;16.38;73.33;101218.75;5054570;28;20412;-75
2021/09/02 01:55:54;;;;;;;12.33;9.17;;;;;;;16.35;73.36;101216.56;5070061;28;20430;-75
2021/09/02 01:58:19;;;;;;;10.25;9.25;;;;;;;16.32;73.42;101214.34;5062002;28;20407;-74
2021/09/02 02:00:45;;;;;;;10.03;9.07;;;;;;;16.32;73.67;101217.91;5052920;28;20508;-75
2021/09/02 02:03:10;;;;;;;10.02;8.70;;;;;;;16.32;73.59;101217.09;5051079;28;20413;-75
2021/09/02 02:05:36;;;;;;;11.80;10.03;;;;;;;16.30;73.87;101208.31;5058741;28;20432;-75
2021/09/02 02:08:02;;;;;;;10.23;9.23;;;;;;;16.27;73.57;101206.91;5059014;28;20407;-75
2021/09/02 02:10:28;;;;;;;11.63;9.50;;;;;;;16.27;73.24;101214.31;5054296;28;20455;-75
2021/09/02 02:13:00;;;;;;;10.60;8.38;;;;;;;16.24;73.35;101215.66;5053470;28;20403;-75
2021/09/02 02:15:26;;;;;;;9.77;8.85;;;;;;;16.21;73.64;101216.19;5059434;28;20771;-75
2021/09/02 02:17:51;;;;;;;12.35;9.88;;;;;;;16.20;73.55;101219.19;5055588;28;20425;-75
2021/09/02 02:20:17;;;;;;;9.63;8.63;;;;;;;16.14;73.60;101222.97;5054603;28;20409;-75
2021/09/02 02:22:43;;;;;;;12.37;10.00;;;;;;;16.13;73.65;101221.34;5065874;28;20898;-75
2021/09/02 02:25:10;;;;;;;10.70;9.65;;;;;;;16.14;73.60;101226.53;5056470;28;20415;-75
2021/09/02 02:27:36;;;;;;;13.73;9.67;;;;;;;16.13;73.40;101226.81;5060950;28;20412;-75
2021/09/02 02:30:03;;;;;;;10.20;8.93;;;;;;;16.11;73.67;101232.53;5054947;28;20409;-75
2021/09/02 02:32:28;;;;;;;14.30;10.60;;;;;;;16.09;74.00;101223.78;5055259;28;20388;-75
2021/09/02 02:34:54;;;;;;;9.97;9.00;;;;;;;16.10;73.70;101223.50;5067025;28;20775;-75
2021/09/02 02:37:19;;;;;;;11.17;9.43;;;;;;;16.09;73.97;101215.56;5058601;28;20931;-75
2021/09/02 02:39:44;;;;;;;10.80;9.70;;;;;;;16.08;73.94;101219.38;5060893;28;20411;-75
2021/09/02 02:42:10;;;;;;;12.30;10.13;;;;;;;16.03;73.67;101222.09;5053397;28;20966;-75
2021/09/02 02:44:37;;;;;;;10.27;9.23;;;;;;;16.04;73.97;101220.97;5064737;28;20381;-75
2021/09/02 02:47:04;;;;;;;10.48;9.13;;;;;;;16.04;73.68;101224.53;5063615;28;20835;-75
2021/09/02 02:49:29;;;;;;;14.03;10.40;;;;;;;16.05;73.56;101225.38;5050801;28;20401;-75
2021/09/02 02:51:55;;;;;;;12.80;10.00;;;;;;;16.05;73.40;101215.28;5067224;28;20931;-75
2021/09/02 02:54:20;;;;;;;10.90;9.20;;;;;;;16.01;73.37;101219.59;5064421;28;20401;-75
2021/09/02 02:56:45;;;;;;;11.60;10.50;;;;;;;15.97;74.09;101228.63;5058406;28;20463;-75
2021/09/02 02:59:11;;;;;;;11.30;10.10;;;;;;;15.94;73.99;101223.63;5087359;28;20404;-75
2021/09/02 03:01:37;;;;;;;11.40;9.50;;;;;;;15.95;73.77;101226.13;5053924;28;20485;-75
2021/09/02 03:04:02;;;;;;;12.00;10.10;;;;;;;15.94;74.36;101221.72;5063989;28;20915;-75
2021/09/02 03:06:28;;;;;;;11.10;9.85;;;;;;;15.94;73.85;101218.16;5056444;28;20451;-75
2021/09/02 03:08:53;;;;;;;11.10;10.00;;;;;;;15.93;73.78;101220.09;5054659;28;20417;-75
2021/09/02 03:11:19;;;;;;;14.10;10.43;;;;;;;15.85;73.85;101217.84;5065645;28;20498;-75
2021/09/02 03:13:44;;;;;;;13.30;10.37;;;;;;;15.73;74.06;101219.09;5065726;28;20791;-75
2021/09/02 03:16:10;;;;;;;12.50;10.77;;;;;;;15.64;74.33;101221.50;5055552;28;20449;-74
2021/09/02 03:18:35;;;;;;;12.10;10.73;;;;;;;15.60;74.41;101217.63;5063189;28;20415;-74
2021/09/02 03:21:00;;;;;;;13.60;10.70;;;;;;;15.55;74.61;101226.59;5054661;28;20508;-75
2021/09/02 03:23:28;;;;;;;12.70;10.90;;;;;;;15.46;74.73;101219.94;5066835;28;20391;-75
2021/09/02 03:25:53;;;;;;;15.88;11.27;;;;;;;15.47;74.73;101229.78;5050277;28;20834;-75
2021/09/02 03:28:18;;;;;;;13.27;11.37;;;;;;;15.50;74.38;101221.09;5052598;28;20421;-74
2021/09/02 03:30:44;;;;;;;12.57;11.37;;;;;;;15.49;74.60;101219.44;5052630;28;20507;-75
2021/09/02 03:33:10;;;;;;;13.40;11.00;;;;;;;15.47;74.51;101213.41;5052926;28;20540;-75
2021/09/02 03:35:35;;;;;;;15.77;10.63;;;;;;;15.46;74.49;101216.38;5056960;28;20417;-75
2021/09/02 03:38:00;;;;;;;14.13;11.27;;;;;;;15.36;74.61;101219.00;5056934;28;20495;-75
2021/09/02 03:40:25;;;;;;;14.23;11.13;;;;;;;15.32;74.83;101220.59;5055629;28;20402;-74
2021/09/02 03:42:51;;;;;;;14.18;11.57;;;;;;;15.25;75.42;101211.78;5056894;28;20503;-75
2021/09/02 03:45:16;;;;;;;17.27;10.60;;;;;;;15.26;75.42;101217.00;5058271;28;20494;-74
2021/09/02 03:47:47;;;;;;;12.60;10.77;;;;;;;15.33;75.30;101220.34;5056829;28;20395;-74
2021/09/02 03:50:13;;;;;;;13.80;10.70;;;;;;;15.30;74.91;101226.34;5054823;28;20407;-74
2021/09/02 03:52:38;;;;;;;11.73;10.52;;;;;;;15.34;75.02;101226.63;5056110;28;20418;-74
2021/09/02 03:55:05;;;;;;;13.50;10.80;;;;;;;15.33;74.86;101225.81;5055933;28;20417;-74
2021/09/02 03:57:30;;;;;;;12.10;10.70;;;;;;;15.35;74.52;101218.19;5057273;28;20506;-74
2021/09/02 03:59:56;;;;;;;11.23;10.13;;;;;;;15.31;74.81;101218.97;5051785;28;20512;-74
2021/09/02 04:02:21;;;;;;;17.50;11.10;;;;;;;15.25;74.83;101218.06;5055682;28;20488;-74
2021/09/02 04:04:46;;;;;;;12.40;11.10;;;;;;;15.26;75.03;101217.00;5056048;28;20906;-74
2021/09/02 04:07:11;;;;;;;15.63;11.90;;;;;;;15.24;74.82;101218.34;5055363;28;20474;-74
2021/09/02 04:09:37;;;;;;;15.90;12.50;;;;;;;15.19;74.73;101221.00;5055291;28;20411;-74
2021/09/02 04:12:02;;;;;;;15.03;12.63;;;;;;;15.14;74.95;101218.22;5056801;28;20411;-74
2021/09/02 04:14:27;;;;;;;16.97;13.00;;;;;;;15.10;75.06;101220.66;5056303;28;20943;-74
2021/09/02 04:16:55;;;;;;;15.27;12.93;;;;;;;15.02;75.40;101216.47;5054962;28;20426;-74
2021/09/02 04:19:21;;;;;;;17.10;13.17;;;;;;;15.04;75.44;101214.31;5057446;28;20890;-74
2021/09/02 04:21:46;;;;;;;14.97;13.27;;;;;;;15.06;75.37;101214.03;5054384;28;20439;-74
2021/09/02 04:24:11;;;;;;;19.07;13.70;;;;;;;15.10;75.35;101215.19;5054441;28;20423;-74
2021/09/02 04:26:36;;;;;;;16.20;12.93;;;;;;;15.12;75.19;101210.28;5055028;28;20412;-74
2021/09/02 04:29:01;;;;;;;14.60;13.10;;;;;;;15.11;74.87;101207.81;5055747;28;20411;-74
2021/09/02 04:31:27;;;;;;;14.53;13.03;;;;;;;15.01;74.98;101212.09;5060315;28;20403;-74
2021/09/02 04:33:52;;;;;;;17.17;13.30;;;;;;;15.00;75.23;101204.97;5058476;28;21021;-74
2021/09/02 04:36:18;;;;;;;15.53;12.83;;;;;;;15.04;75.25;101208.84;5069640;28;20409;-75
2021/09/02 04:38:43;;;;;;;16.30;12.83;;;;;;;15.05;75.14;101210.47;5049764;28;20509;-75
2021/09/02 04:41:09;;;;;;;18.67;13.00;;;;;;;15.05;75.36;101213.22;5056173;28;20479;-75
2021/09/02 04:43:34;;;;;;;15.23;11.73;;;;;;;15.06;75.32;101214.88;5062445;28;20777;-74
2021/09/02 04:45:59;;;;;;;15.15;12.20;;;;;;;15.08;74.92;101220.09;5053215;28;20407;-74
2021/09/02 04:48:25;;;;;;;13.53;11.83;;;;;;;15.13;74.59;101225.59;5064842;28;20418;-75
2021/09/02 04:50:51;;;;;;;12.87;11.57;;;;;;;15.10;74.37;101226.09;5066968;28;20824;-75
2021/09/02 04:53:18;;;;;;;14.35;11.63;;;;;;;15.14;74.87;101229.97;5065677;28;20403;-74
2021/09/02 04:55:43;;;;;;;14.73;11.87;;;;;;;15.19;74.43;101226.47;5060690;28;20415;-74
2021/09/02 04:58:10;;;;;;;14.97;11.83;;;;;;;15.21;74.66;101222.41;5057946;28;20406;-74
2021/09/02 05:00:37;;;;;;;13.53;12.10;;;;;;;15.21;74.42;101229.78;5061452;28;20430;-74
2021/09/02 05:03:05;;;;;;;15.73;11.90;;;;;;;15.17;74.51;101232.19;5058647;28;20399;-75
2021/09/02 05:05:30;;;;;;;15.70;12.25;;;;;;;15.18;74.56;101227.56;5062385;28;20409;-75
2021/09/02 05:07:56;;;;;;;13.67;12.03;;;;;;;15.16;74.61;101226.97;5057157;28;20409;-75
2021/09/02 05:10:22;;;;;;;17.10;12.85;;;;;;;15.14;74.50;101224.53;5063674;28;20416;-75
2021/09/02 05:12:47;;;;;;;16.80;13.27;;;;;;;15.11;74.63;101224.22;5055576;28;20424;-75
2021/09/02 05:15:13;;;;;;;15.67;12.33;;;;;;;15.10;74.49;101220.66;5055637;28;20797;-74
2021/09/02 05:17:39;;;;;;;14.77;13.27;;;;;;;15.12;74.23;101231.28;5055540;28;20912;-74
2021/09/02 05:20:05;;;;;;;14.87;12.23;;;;;;;15.10;74.82;101222.56;5057820;28;20411;-74
2021/09/02 05:22:30;;;;;;;14.85;12.40;;;;;;;15.12;74.43;101228.56;5052052;28;20405;-74
2021/09/02 05:24:55;;;;;;;14.87;13.10;;;;;;;15.13;74.36;101228.31;5058146;28;20406;-74
2021/09/02 05:27:21;;;;;;;16.67;13.23;;;;;;;15.08;74.22;101222.81;5056398;28;20415;-75
2021/09/02 05:29:46;;;;;;;14.30;12.80;;;;;;;15.00;74.92;101224.09;5056784;28;20813;-74
2021/09/02 05:32:11;;;;;;;16.70;13.27;;;;;;;14.97;74.82;101216.41;5071021;28;20392;-75
2021/09/02 05:34:37;;;;;;;15.73;12.65;;;;;;;15.00;74.83;101218.63;5048984;28;21313;-74
2021/09/02 05:37:02;;;;;;;15.37;12.70;;;;;;;14.98;75.11;101220.78;5049220;28;20863;-74
2021/09/02 05:39:28;;;;;;;15.98;13.25;;;;;;;15.02;75.18;101219.19;5045727;28;20415;-74
2021/09/02 05:41:54;;;;;;;16.60;12.83;;;;;;;15.03;75.50;101220.03;5048371;28;20764;-74
2021/09/02 05:44:19;;;;;;;15.63;12.98;;;;;;;15.10;75.25;101220.66;5050415;28;20503;-74
2021/09/02 05:46:45;;;;;;;14.00;12.40;;;;;;;15.14;74.66;101223.69;5052820;28;20422;-73
2021/09/02 05:49:10;;;;;;;15.18;13.02;;;;;;;15.17;74.80;101225.91;5056094;28;20426;-74
2021/09/02 05:51:35;;;;;;;15.00;13.43;;;;;;;15.12;74.51;101225.84;5056642;28;20462;-74
2021/09/02 05:54:01;;;;;;;17.20;12.80;;;;;;;15.08;75.00;101231.00;5052620;28;20404;-74
2021/09/02 05:56:26;;;;;;;17.77;13.13;;;;;;;15.03;74.97;101222.75;5066459;28;20564;-75
2021/09/02 05:58:51;;;;;;;13.63;12.30;;;;;;;15.11;75.17;101224.22;5054972;28;20758;-74
2021/09/02 06:01:17;;;;;;;16.85;12.50;;;;;;;15.14;74.79;101216.34;5052506;28;22144;-73
2021/09/02 06:03:43;;;;;;;20.73;12.30;;;;;;;15.19;74.87;101223.72;5051165;28;20415;-73
2021/09/02 06:06:08;;;;;;;17.27;12.10;;;;;;;15.19;74.69;101221.84;5053204;28;20420;-74
2021/09/02 06:08:34;;;;;;;22.67;11.83;;;;;;;15.26;75.05;101230.66;5054593;28;20504;-74
2021/09/02 06:11:02;;;;;;;15.02;11.35;;;;;;;15.24;74.31;101230.09;5052649;28;20405;-73
2021/09/02 06:13:29;;;;;;;14.05;11.32;;;;;;;15.25;74.41;101230.88;5052386;28;20407;-75
2021/09/02 06:15:54;;;;;;;13.65;11.13;;;;;;;15.28;74.73;101238.59;5052017;28;20431;-74
2021/09/02 06:18:19;;;;;;;14.05;11.60;;;;;;;15.33;74.33;101236.75;5055293;28;20492;-74
2021/09/02 06:20:44;;;;;;;13.00;11.60;;;;;;;15.33;74.37;101246.84;5052507;28;20397;-74
2021/09/02 06:23:10;;;;;;;12.93;10.20;;;;;;;15.35;74.37;101237.28;5053072;28;20413;-75
2021/09/02 06:25:35;;;;;;;11.05;9.90;;;;;;;15.41;74.28;101241.72;5046932;28;20404;-74
2021/09/02 06:28:01;;;;;;;12.77;9.87;;;;;;;15.44;73.96;101233.00;5051975;28;20773;-74
2021/09/02 06:30:26;;;;;;;12.15;10.23;;;;;;;15.43;74.16;101239.56;5051566;28;20411;-74
2021/09/02 06:32:51;;;;;;;13.20;10.47;;;;;;;15.47;74.27;101240.72;5050992;28;21031;-75
2021/09/02 06:35:17;;;;;;;11.77;10.15;;;;;;;15.51;73.88;101249.25;5051925;28;20415;-73
2021/09/02 06:37:42;;;;;;;12.30;9.67;;;;;;;15.54;74.18;101248.72;5048210;28;20409;-74
2021/09/02 06:40:09;;;;;;;10.60;9.47;;;;;;;15.53;73.74;101253.38;5051491;28;20415;-75
2021/09/02 06:42:34;;;;;;;12.98;10.10;;;;;;;15.57;73.80;101253.69;5053443;28;20426;-74
2021/09/02 06:44:59;;;;;;;13.83;9.90;;;;;;;15.60;73.58;101249.59;5053656;28;20415;-74
2021/09/02 06:47:24;;;;;;;12.97;9.47;;;;;;;15.65;73.04;101246.91;5050359;28;20398;-74
2021/09/02 06:49:49;;;;;;;10.40;9.33;;;;;;;15.64;73.13;101246.09;5051519;28;20407;-74
2021/09/02 06:52:15;;;;;;;11.30;10.10;;;;;;;15.69;73.11;101250.75;5053759;28;20408;-75
2021/09/02 06:54:40;;;;;;;10.43;9.20;;;;;;;15.74;72.98;101248.09;5050073;28;20406;-75
2021/09/02 06:57:06;;;;;;;11.53;9.77;;;;;;;15.73;72.71;101239.06;5052740;28;20432;-75
2021/09/02 06:59:31;;;;;;;10.30;9.13;;;;;;;15.75;73.05;101239.63;5059671;28;20469;-75
2021/09/02 07:01:56;;;;;;;11.67;8.90;;;;;;;15.75;72.78;101244.25;5050861;28;20411;-75
2021/09/02 07:04:22;;;;;;;10.20;9.17;;;;;;;15.77;73.04;101247.56;5049065;28;20420;-74
2021/09/02 07:06:47;;;;;;;10.20;8.90;;;;;;;15.81;72.66;101243.22;5054080;28;20423;-74
2021/09/02 07:09:12;;;;;;;11.80;8.57;;;;;;;15.84;72.56;101237.25;5053754;28;20407;-74
2021/09/02 07:11:38;;;;;;;9.27;8.37;;;;;;;15.84;72.28;101242.72;5062598;28;20408;-74
2021/09/02 07:14:03;;;;;;;11.57;9.10;;;;;;;15.85;72.85;101242.44;5054470;28;20553;-74
2021/09/02 07:16:29;;;;;;;10.85;8.95;;;;;;;15.94;72.66;101232.66;5049701;28;20427;-74
2021/09/02 07:18:54;;;;;;;11.80;9.02;;;;;;;15.94;72.52;101240.03;5047962;28;20407;-74
2021/09/02 07:21:20;;;;;;;16.07;8.83;;;;;;;15.99;72.68;101237.38;5048617;28;20404;-74
2021/09/02 07:23:45;;;;;;;9.97;8.00;;;;;;;16.04;72.22;101243.69;5051861;28;20570;-74
2021/09/02 07:26:10;;;;;;;10.95;8.85;;;;;;;16.04;71.79;101245.59;5055340;28;20419;-74
2021/09/02 07:28:35;;;;;;;9.30;8.30;;;;;;;16.10;71.92;101241.84;5054891;28;20415;-74
2021/09/02 07:31:01;;;;;;;7.93;7.17;;;;;;;16.20;70.86;101244.63;5054203;28;20419;-74
2021/09/02 07:33:26;;;;;;;12.10;8.43;;;;;;;16.21;71.04;101248.19;5054636;28;20423;-74
2021/09/02 07:35:51;;;;;;;9.47;7.47;;;;;;;16.24;71.06;101251.22;5044586;28;20478;-74
2021/09/02 07:38:17;;;;;;;15.40;8.73;;;;;;;16.26;70.87;101243.59;5052382;28;20430;-74
2021/09/02 07:40:42;;;;;;;11.30;7.75;;;;;;;16.31;70.67;101242.78;5053166;28;20569;-74
2021/09/02 07:43:07;;;;;;;8.87;7.97;;;;;;;16.29;70.68;101256.72;5052605;28;20500;-74
2021/09/02 07:45:33;;;;;;;9.00;8.10;;;;;;;16.31;70.90;101246.34;5051319;28;20466;-74
2021/09/02 07:47:58;;;;;;;9.47;8.50;;;;;;;16.39;70.89;101253.25;5054978;28;20437;-74
2021/09/02 07:50:23;;;;;;;8.40;7.60;;;;;;;16.44;70.81;101254.09;5051878;28;20407;-74
2021/09/02 07:52:49;;;;;;;11.00;7.63;;;;;;;16.54;71.09;101258.78;5054713;28;20882;-74
2021/09/02 07:55:15;;;;;;;9.57;7.30;;;;;;;16.61;70.74;101259.41;5046100;28;20420;-74
2021/09/02 07:57:44;;;;;;;8.57;7.63;;;;;;;16.63;70.31;101261.91;5044967;28;20417;-74
2021/09/02 08:00:10;;;;;;;7.85;7.15;;;;;;;16.68;69.69;101268.22;5042453;28;20842;-74
2021/09/02 08:02:35;;;;;;;9.45;7.60;;;;;;;16.70;69.51;101271.50;5046224;28;20408;-75
2021/09/02 08:05:01;;;;;;;9.20;7.50;;;;;;;16.78;69.37;101261.97;5051101;28;20419;-74
2021/09/02 08:07:26;;;;;;;8.57;7.60;;;;;;;16.89;69.82;101269.94;5056633;28;20411;-74
2021/09/02 08:09:51;;;;;;;7.55;6.55;;;;;;;16.93;68.97;101270.22;5055461;28;20416;-74
2021/09/02 08:12:17;;;;;;;8.07;7.27;;;;;;;17.02;68.70;101266.75;5054232;28;20502;-74
2021/09/02 08:14:42;;;;;;;7.40;6.70;;;;;;;17.10;68.62;101271.69;5054003;28;20411;-74
2021/09/02 08:17:07;;;;;;;8.03;7.23;;;;;;;17.16;68.36;101266.25;5056719;28;20417;-74
2021/09/02 08:19:33;;;;;;;7.60;6.50;;;;;;;17.24;67.97;101262.97;5052296;28;20905;-75
2021/09/02 08:21:58;;;;;;;9.30;6.80;;;;;;;17.27;67.76;101255.03;5053967;28;20390;-74
2021/09/02 08:24:23;;;;;;;8.37;6.07;;;;;;;17.28;67.62;101253.94;5063085;28;20411;-74
2021/09/02 08:26:49;;;;;;;9.47;6.47;;;;;;;17.37;67.54;101254.25;5056938;28;20399;-74
2021/09/02 08:29:14;;;;;;;6.90;6.30;;;;;;;17.46;67.01;101258.91;5055211;28;20506;-74
2021/09/02 08:31:40;;;;;;;8.80;6.40;;;;;;;17.54;67.00;101258.41;5056342;28;20780;-74
2021/09/02 08:34:05;;;;;;;10.73;6.70;;;;;;;17.60;66.73;101265.56;5054423;28;20453;-74
2021/09/02 08:36:30;;;;;;;10.20;6.67;;;;;;;17.65;66.51;101259.25;5051135;28;20428;-74
2021/09/02 08:38:55;;;;;;;7.20;6.50;;;;;;;17.70;65.96;101253.78;5055776;28;20407;-75
2021/09/02 08:41:21;;;;;;;7.13;5.70;;;;;;;17.76;65.96;101249.94;5057350;28;20399;-74
2021/09/02 08:43:47;;;;;;;7.00;6.30;;;;;;;17.85;65.73;101251.03;5056949;28;20917;-74
2021/09/02 08:46:13;;;;;;;7.20;6.47;;;;;;;17.91;65.09;101258.19;5053168;28;20420;-74
2021/09/02 08:48:44;;;;;;;11.57;6.18;;;;;;;18.00;64.95;101247.47;5059313;28;20412;-75
2021/09/02 08:51:10;;;;;;;6.05;5.40;;;;;;;18.11;64.33;101252.66;5057308;28;20788;-74
2021/09/02 08:53:35;;;;;;;7.47;6.18;;;;;;;18.20;63.86;101250.22;5063293;28;20413;-74
2021/09/02 08:56:02;;;;;;;8.17;6.17;;;;;;;18.32;64.07;101249.91;5056980;28;20469;-74
2021/09/02 08:58:29;;;;;;;6.57;5.88;;;;;;;18.44;63.35;101251.25;5064134;28;20802;-74
2021/09/02 09:00:54;;;;;;;9.15;6.10;;;;;;;18.60;63.04;101241.94;5065356;28;20392;-75
2021/09/02 09:03:20;;;;;;;6.47;5.60;;;;;;;18.85;62.55;101237.44;5056191;28;20412;-74
2021/09/02 09:05:56;;;;;;;6.77;5.50;;;;;;;19.17;61.80;101240.56;5054277;28;20510;-75
2021/09/02 09:08:36;;;;;;;6.55;5.72;;;;;;;19.47;60.62;101232.19;5058775;28;20466;-74
2021/09/02 09:11:15;;;;;;;6.63;5.35;;;;;;;19.58;60.22;101224.69;5064159;28;20411;-74
2021/09/02 09:13:41;;;;;;;6.20;5.60;;;;;;;19.75;59.94;101229.78;5056633;28;20497;-75
2021/09/02 09:16:07;;;;;;;8.85;5.75;;;;;;;19.98;59.53;101223.56;5059426;28;20843;-75
2021/09/02 09:18:39;;;;;;;6.73;5.33;;;;;;;20.22;58.03;101223.59;5052718;28;20385;-74
2021/09/02 09:21:18;;;;;;;5.60;5.13;;;;;;;20.41;57.73;101221.78;5053279;28;20755;-74
2021/09/02 09:23:53;;;;;;;5.60;5.03;;;;;;;20.61;56.80;101218.81;5061483;28;20459;-75
2021/09/02 09:26:19;;;;;;;6.07;5.03;;;;;;;20.85;54.81;101218.78;5055459;28;21085;-75
2021/09/02 09:28:44;;;;;;;6.47;5.22;;;;;;;21.20;53.53;101223.84;5064034;28;20464;-74
2021/09/02 09:31:35;;;;;;;7.13;5.00;;;;;;;21.59;53.57;101216.09;5057425;28;20807;-75
2021/09/02 09:34:05;;;;;;;8.05;4.75;;;;;;;22.02;52.48;101202.16;5071869;28;20798;-74
2021/09/02 09:36:33;;;;;;;6.80;5.10;;;;;;;22.32;51.43;101198.03;5058812;28;20430;-74
2021/09/02 09:39:07;;;;;;;5.53;5.03;;;;;;;22.55;50.64;101197.84;5068060;28;20404;-75
2021/09/02 09:41:38;;;;;;;5.53;4.97;;;;;;;23.10;48.82;101197.81;5058213;28;20920;-75
2021/09/02 09:44:23;;;;;;;6.28;5.70;;;;;;;23.96;46.61;101188.28;5061045;28;20404;-75
2021/09/02 09:47:17;;;;;;;5.57;4.60;;;;;;;24.91;44.17;101191.47;5054462;28;20918;-75
2021/09/02 09:49:46;;;;;;;5.40;4.90;;;;;;;25.41;42.58;101189.09;5055413;28;20441;-75
2021/09/02 09:52:18;;;;;;;4.65;4.25;;;;;;;25.70;41.77;101184.53;5057439;28;20487;-75
2021/09/02 09:54:43;;;;;;;5.15;4.80;;;;;;;25.97;41.13;101183.34;5053813;28;20443;-75
2021/09/02 09:57:09;;;;;;;9.33;4.80;;;;;;;26.17;40.73;101179.06;5050721;28;20455;-75
2021/09/02 09:59:36;;;;;;;5.15;4.72;;;;;;;26.53;40.04;101175.81;5060568;28;20490;-75
2021/09/02 10:02:03;;;;;;;4.80;4.40;;;;;;;26.70;39.26;101184.88;5049837;28;20490;-75
2021/09/02 10:04:30;;;;;;;5.72;4.88;;;;;;;26.53;39.50;101184.97;5053114;28;20389;-75
2021/09/02 10:06:56;;;;;;;5.10;4.70;;;;;;;26.42;40.03;101174.53;5065227;28;20919;-75
2021/09/02 10:09:21;;;;;;;4.90;4.33;;;;;;;26.32;39.60;101172.94;5053910;28;20417;-75
2021/09/02 10:11:47;;;;;;;4.93;4.40;;;;;;;26.29;39.99;101176.41;5061336;28;20472;-75
2021/09/02 10:14:12;;;;;;;5.45;5.05;;;;;;;26.47;39.55;101169.63;5055285;28;20752;-75
2021/09/02 10:16:37;;;;;;;7.57;4.80;;;;;;;27.07;38.74;101171.28;5051263;28;20492;-75
2021/09/02 10:19:03;;;;;;;5.50;5.00;;;;;;;28.04;36.66;101171.69;5050799;28;20409;-75
2021/09/02 10:21:28;;;;;;;6.57;4.67;;;;;;;28.83;34.83;101176.81;5063110;28;20766;-75
2021/09/02 10:23:54;;;;;;;5.57;4.30;;;;;;;29.70;33.25;101163.09;5068735;28;20384;-75
2021/09/02 10:26:31;;;;;;;4.80;4.40;;;;;;;30.77;31.47;101156.31;5053174;28;20405;-75
2021/09/02 10:28:56;;;;;;;5.72;4.95;;;;;;;31.35;30.53;101163.63;5065831;28;20480;-74
2021/09/02 10:31:25;;;;;;;4.90;4.60;;;;;;;32.30;28.78;101169.53;5062062;28;20407;-74
2021/09/02 10:33:50;;;;;;;5.25;4.60;;;;;;;33.40;26.93;101170.00;5060984;28;20412;-74
2021/09/02 10:36:15;;;;;;;6.67;5.20;;;;;;;34.43;25.59;101173.94;5051506;28;20876;-74
2021/09/02 10:38:50;;;;;;;5.00;4.60;;;;;;;35.16;24.31;101166.47;5059648;28;20408;-75
2021/09/02 10:41:40;;;;;;;5.38;4.90;;;;;;;35.56;23.42;101157.78;5056439;28;20409;-74
2021/09/02 10:44:13;;;;;;;5.30;4.80;;;;;;;35.92;22.84;101156.69;5054444;28;20939;-74
2021/09/02 10:46:52;;;;;;;4.75;4.35;;;;;;;35.98;22.72;101156.28;5065324;28;20770;-74
2021/09/02 10:49:35;;;;;;;5.20;4.78;;;;;;;35.72;22.63;101161.06;5060388;28;20403;-74
2021/09/02 10:52:04;;;;;;;8.10;5.50;;;;;;;35.82;22.98;101151.84;5051245;28;20963;-74
2021/09/02 10:54:34;;;;;;;5.60;4.70;;;;;;;35.45;23.17;101150.47;5049531;28;20820;-74
2021/09/02 10:57:07;;;;;;;11.43;4.90;;;;;;;35.41;23.38;101154.09;5062951;28;20506;-74
2021/09/02 10:59:51;;;;;;;6.88;4.97;;;;;;;35.46;23.66;101147.28;5052248;28;20865;-74
2021/09/02 11:02:17;;;;;;;5.45;5.00;;;;;;;35.11;23.31;101139.47;5058066;28;20408;-74
2021/09/02 11:04:47;;;;;;;5.60;4.47;;;;;;;35.14;23.25;101140.69;5062611;28;20410;-74
2021/09/02 11:07:13;;;;;;;6.10;4.75;;;;;;;34.81;24.00;101136.06;5055255;28;20385;-74
2021/09/02 11:09:40;;;;;;;5.43;4.93;;;;;;;34.08;24.33;101135.03;5050992;28;20934;-74
2021/09/02 11:12:10;;;;;;;5.97;5.10;;;;;;;33.54;25.27;101134.84;5060980;28;20412;-75
2021/09/02 11:14:42;;;;;;;13.02;5.68;;;;;;;32.60;26.70;101125.56;5052236;28;20765;-76